Time;durP1;ratioP1;P1;durP2;ratioP2;P2;SDS_P1;SDS_P2;PMS_P1;PMS_P2;Temp;Humidity;BMP_temperature;BMP_pressure;BME280_temperature;BME280_humidity;BME280_pressure;Samples;Min_cycle;Max_cycle;Signal;HPM_P1;HPM_P2
2023/04/18 00:00:27;;;;;;;12.27;6.55;;;8.20;73.40;;;;;;5076923;28;20024;-46
2023/04/18 00:02:54;;;;;;;9.23;6.88;;;8.20;73.60;;;;;;5072511;28;20039;-48
2023/04/18 00:05:25;;;;;;;9.90;6.07;;;8.20;73.70;;;;;;5073050;28;20024;-45
2023/04/18 00:08:01;;;;;;;9.95;6.50;;;8.20;73.60;;;;;;5073113;28;20521;-46
2023/04/18 00:10:28;;;;;;;9.77;6.13;;;8.20;74.00;;;;;;5073233;28;20029;-45
2023/04/18 00:12:59;;;;;;;9.27;6.25;;;8.20;74.10;;;;;;5081112;28;20028;-46
2023/04/18 00:15:30;;;;;;;10.48;6.30;;;8.20;74.50;;;;;;5072535;28;20048;-46
2023/04/18 00:17:56;;;;;;;10.10;6.93;;;8.20;74.70;;;;;;5073567;28;20422;-45
2023/04/18 00:20:24;;;;;;;12.90;7.35;;;8.20;74.80;;;;;;5093044;28;20012;-49
2023/04/18 00:22:52;;;;;;;9.48;6.18;;;8.20;75.20;;;;;;5092813;28;20059;-45
2023/04/18 00:25:19;;;;;;;8.52;5.82;;;8.20;74.70;;;;;;5092656;28;20103;-49
2023/04/18 00:27:46;;;;;;;9.15;5.93;;;8.20;74.90;;;;;;5062366;28;20028;-46
2023/04/18 00:30:12;;;;;;;9.73;6.55;;;8.20;74.20;;;;;;5072814;28;20027;-44
2023/04/18 00:32:38;;;;;;;9.50;6.60;;;8.20;74.60;;;;;;5072890;28;20017;-46
2023/04/18 00:35:07;;;;;;;8.35;5.75;;;8.20;74.50;;;;;;5072775;28;20037;-45
2023/04/18 00:37:34;;;;;;;8.02;5.70;;;8.30;73.80;;;;;;5072748;28;20040;-46
2023/04/18 00:40:04;;;;;;;10.07;6.40;;;8.30;74.20;;;;;;5075395;28;20032;-44
2023/04/18 00:42:34;;;;;;;8.50;6.18;;;8.20;74.70;;;;;;5075204;28;20051;-45
2023/04/18 00:45:05;;;;;;;8.10;5.70;;;8.30;74.80;;;;;;5092674;28;20085;-46
2023/04/18 00:47:35;;;;;;;10.23;6.28;;;8.30;74.60;;;;;;5092758;28;20442;-46
2023/04/18 00:50:02;;;;;;;12.00;6.22;;;8.30;74.60;;;;;;5092858;28;20016;-46
2023/04/18 00:52:33;;;;;;;8.45;5.85;;;8.30;74.50;;;;;;5091646;28;20054;-45
2023/04/18 00:54:59;;;;;;;8.63;6.20;;;8.30;75.10;;;;;;5091336;28;20032;-47
2023/04/18 00:57:28;;;;;;;8.82;5.15;;;8.30;74.30;;;;;;5094163;28;20029;-48
2023/04/18 00:59:55;;;;;;;9.13;5.22;;;8.30;73.30;;;;;;5078119;28;20053;-47
2023/04/18 01:02:25;;;;;;;8.38;5.32;;;8.30;73.20;;;;;;5094788;28;20115;-46
2023/04/18 01:04:51;;;;;;;10.52;6.70;;;8.20;73.90;;;;;;5062548;28;20158;-48
2023/04/18 01:07:17;;;;;;;6.65;5.68;;;8.30;74.20;;;;;;5075790;28;20042;-46
2023/04/18 01:09:43;;;;;;;9.63;6.20;;;8.20;74.00;;;;;;5076021;28;20050;-47
2023/04/18 01:12:11;;;;;;;9.73;6.13;;;8.20;74.60;;;;;;5058477;28;20037;-45
2023/04/18 01:14:41;;;;;;;10.15;6.38;;;8.20;74.80;;;;;;5091271;28;20085;-49
2023/04/18 01:17:12;;;;;;;14.02;7.50;;;8.20;74.90;;;;;;5078417;28;20036;-46
2023/04/18 01:19:39;;;;;;;9.18;6.43;;;8.20;75.50;;;;;;5095029;28;20047;-45
2023/04/18 01:22:10;;;;;;;9.80;7.28;;;8.20;75.70;;;;;;5095939;28;20393;-47
2023/04/18 01:24:38;;;;;;;8.90;6.15;;;8.10;75.60;;;;;;5079547;28;20059;-48
2023/04/18 01:27:07;;;;;;;9.82;6.63;;;8.20;75.40;;;;;;5065641;28;20043;-47
2023/04/18 01:29:33;;;;;;;11.73;8.25;;;8.20;75.50;;;;;;5088335;28;20032;-51
2023/04/18 01:32:01;;;;;;;10.70;6.95;;;8.20;76.10;;;;;;5095852;28;20046;-43
2023/04/18 01:34:30;;;;;;;12.77;7.70;;;8.20;76.10;;;;;;5077437;28;20495;-45
2023/04/18 01:37:00;;;;;;;11.32;6.90;;;8.20;75.90;;;;;;5075031;28;20116;-47
2023/04/18 01:39:27;;;;;;;9.98;6.78;;;8.20;76.00;;;;;;5075534;28;20365;-46
2023/04/18 01:41:52;;;;;;;10.43;7.35;;;8.20;76.50;;;;;;5075594;28;20445;-45
2023/04/18 01:44:21;;;;;;;10.48;6.95;;;8.20;76.00;;;;;;5069695;28;20088;-45
2023/04/18 01:46:47;;;;;;;12.77;7.00;;;8.20;75.70;;;;;;5095370;28;20028;-46
2023/04/18 01:49:15;;;;;;;11.23;6.75;;;8.10;75.80;;;;;;5095300;28;20107;-45
2023/04/18 01:51:44;;;;;;;11.27;8.10;;;8.10;76.30;;;;;;5064621;28;20036;-45
2023/04/18 01:54:14;;;;;;;13.45;7.88;;;8.00;76.50;;;;;;5079432;28;20418;-46
2023/04/18 01:56:41;;;;;;;11.77;9.23;;;8.10;76.60;;;;;;5073884;28;20040;-48
2023/04/18 01:59:08;;;;;;;11.63;8.60;;;8.00;76.90;;;;;;5063252;28;20510;-44
2023/04/18 02:01:34;;;;;;;13.15;8.00;;;8.00;77.20;;;;;;5081212;28;20032;-45
2023/04/18 02:04:02;;;;;;;12.32;7.80;;;8.00;77.30;;;;;;5094848;28;20484;-49
2023/04/18 02:06:31;;;;;;;11.02;8.15;;;8.00;77.50;;;;;;5085633;28;20039;-47
2023/04/18 02:09:00;;;;;;;10.13;7.85;;;8.00;77.50;;;;;;5074625;28;20039;-47
2023/04/18 02:11:29;;;;;;;12.48;8.07;;;7.90;77.70;;;;;;5075115;28;20036;-45
2023/04/18 02:13:58;;;;;;;11.70;7.22;;;7.90;78.10;;;;;;5080291;28;20074;-45
2023/04/18 02:16:34;;;;;;;9.43;7.47;;;7.90;78.20;;;;;;5074753;28;20107;-45
2023/04/18 02:19:03;;;;;;;11.27;7.53;;;7.90;77.50;;;;;;5074843;28;20032;-47
2023/04/18 02:21:30;;;;;;;12.60;8.27;;;7.90;77.70;;;;;;5074481;28;20037;-45
2023/04/18 02:23:57;;;;;;;11.75;7.68;;;7.90;77.70;;;;;;5074751;28;20031;-47
2023/04/18 02:26:26;;;;;;;10.68;7.40;;;7.90;77.80;;;;;;5094976;28;20039;-46
2023/04/18 02:28:53;;;;;;;12.65;7.28;;;7.80;77.20;;;;;;5066640;28;20039;-46
2023/04/18 02:31:21;;;;;;;10.98;7.47;;;7.80;77.20;;;;;;5074576;28;20032;-46
2023/04/18 02:33:48;;;;;;;11.07;7.43;;;7.80;77.30;;;;;;5057074;28;20036;-46
2023/04/18 02:36:15;;;;;;;10.70;6.78;;;7.80;77.50;;;;;;5084780;28;20115;-45
2023/04/18 02:38:42;;;;;;;10.50;7.38;;;7.80;77.70;;;;;;5091614;28;20028;-45
2023/04/18 02:41:13;;;;;;;9.57;7.65;;;7.80;78.00;;;;;;5062138;28;20040;-44
2023/04/18 02:43:44;;;;;;;11.02;6.93;;;7.80;78.00;;;;;;5079918;28;20024;-45
2023/04/18 02:46:11;;;;;;;12.68;8.63;;;7.80;77.40;;;;;;5056982;28;20025;-45
2023/04/18 02:48:42;;;;;;;12.45;9.38;;;7.80;77.10;;;;;;5074306;28;20063;-47
2023/04/18 02:51:09;;;;;;;12.90;8.63;;;7.80;76.30;;;;;;5090590;28;20426;-45
2023/04/18 02:53:36;;;;;;;11.40;9.05;;;7.70;76.70;;;;;;5087010;28;20107;-49
2023/04/18 02:56:02;;;;;;;12.52;8.32;;;7.70;76.90;;;;;;5074161;28;20461;-46
2023/04/18 02:58:30;;;;;;;9.75;7.45;;;7.60;76.10;;;;;;5080263;28;20032;-47
2023/04/18 03:00:57;;;;;;;11.15;7.47;;;7.60;74.70;;;;;;5056370;28;20117;-45
2023/04/18 03:03:23;;;;;;;10.63;8.20;;;7.60;74.90;;;;;;5056271;28;20028;-45
2023/04/18 03:05:51;;;;;;;11.48;7.80;;;7.50;74.50;;;;;;5079294;28;20445;-47
2023/04/18 03:08:23;;;;;;;12.35;7.95;;;7.50;74.10;;;;;;5073835;28;20070;-48
2023/04/18 03:10:50;;;;;;;10.35;8.07;;;7.50;74.30;;;;;;5074013;28;20040;-45
2023/04/18 03:13:18;;;;;;;13.90;9.02;;;7.40;74.70;;;;;;5075131;28;20063;-47
2023/04/18 03:15:45;;;;;;;12.30;9.20;;;7.50;75.20;;;;;;5079759;28;20454;-47
2023/04/18 03:18:11;;;;;;;12.68;8.48;;;7.50;75.50;;;;;;5073692;28;20152;-45
2023/04/18 03:20:38;;;;;;;13.60;9.25;;;7.50;75.90;;;;;;5082119;28;20028;-45
2023/04/18 03:23:06;;;;;;;14.77;9.30;;;7.50;75.60;;;;;;5094176;28;20062;-49
2023/04/18 03:25:33;;;;;;;9.82;7.80;;;7.40;75.60;;;;;;5059638;28;20028;-46
2023/04/18 03:27:59;;;;;;;16.70;9.73;;;7.40;75.70;;;;;;5089498;28;20029;-49
2023/04/18 03:30:30;;;;;;;13.50;9.30;;;7.40;75.20;;;;;;5059066;28;20331;-45
2023/04/18 03:32:58;;;;;;;13.15;8.57;;;7.30;74.90;;;;;;5055814;28;20443;-45
2023/04/18 03:35:26;;;;;;;11.00;8.23;;;7.30;74.50;;;;;;5073834;28;20055;-44
2023/04/18 03:37:51;;;;;;;10.63;8.90;;;7.30;74.10;;;;;;5073203;28;20089;-46
2023/04/18 03:40:19;;;;;;;11.55;7.75;;;7.30;73.60;;;;;;5060123;28;20032;-48
2023/04/18 03:42:46;;;;;;;9.55;7.85;;;7.30;73.50;;;;;;5039214;28;20071;-49
2023/04/18 03:45:14;;;;;;;12.15;8.57;;;7.30;73.10;;;;;;5065583;28;20020;-45
2023/04/18 03:47:41;;;;;;;12.43;8.68;;;7.30;72.80;;;;;;5073318;28;20017;-45
2023/04/18 03:50:07;;;;;;;12.05;7.95;;;7.20;73.00;;;;;;5082623;28;20412;-45
2023/04/18 03:52:33;;;;;;;13.98;8.80;;;7.20;73.20;;;;;;5093244;28;20103;-47
2023/04/18 03:55:02;;;;;;;14.88;9.18;;;7.20;74.00;;;;;;5058850;28;20034;-47
2023/04/18 03:57:31;;;;;;;12.40;9.48;;;7.20;74.70;;;;;;5085154;28;20064;-43
2023/04/18 03:59:57;;;;;;;13.07;8.60;;;7.20;75.20;;;;;;5079845;28;20071;-48
2023/04/18 04:02:23;;;;;;;12.38;8.93;;;7.20;75.20;;;;;;5057612;28;20032;-48
2023/04/18 04:04:51;;;;;;;14.00;9.18;;;7.20;74.90;;;;;;5075959;28;20028;-49
2023/04/18 04:07:18;;;;;;;12.27;8.95;;;7.30;75.20;;;;;;5092079;28;20047;-45
2023/04/18 04:09:48;;;;;;;13.88;9.80;;;7.20;75.80;;;;;;5092967;28;20403;-50
2023/04/18 04:12:15;;;;;;;17.05;10.52;;;7.20;76.40;;;;;;5091565;28;20066;-47
2023/04/18 04:14:43;;;;;;;13.52;10.52;;;7.20;76.90;;;;;;5089593;28;20350;-45
2023/04/18 04:17:11;;;;;;;15.77;12.05;;;7.20;77.20;;;;;;5072420;28;20032;-49
2023/04/18 04:19:41;;;;;;;14.00;10.82;;;7.20;77.00;;;;;;5072568;28;20462;-47
2023/04/18 04:22:07;;;;;;;18.17;12.02;;;7.20;77.40;;;;;;5072825;28;20036;-45
2023/04/18 04:24:37;;;;;;;18.00;12.77;;;7.20;77.70;;;;;;5072849;28;20130;-47
2023/04/18 04:27:07;;;;;;;16.52;12.48;;;7.20;78.10;;;;;;5055294;28;20017;-45
2023/04/18 04:29:34;;;;;;;20.13;13.30;;;7.20;78.20;;;;;;5056987;28;20036;-49
2023/04/18 04:32:04;;;;;;;16.98;13.35;;;7.20;78.50;;;;;;5084337;28;20054;-45
2023/04/18 04:34:33;;;;;;;17.90;12.75;;;7.20;79.00;;;;;;5096800;28;20107;-45
2023/04/18 04:37:03;;;;;;;16.00;11.70;;;7.20;79.30;;;;;;5092249;28;20021;-46
2023/04/18 04:39:30;;;;;;;18.02;12.65;;;7.20;79.20;;;;;;5076815;28;20115;-46
2023/04/18 04:42:00;;;;;;;14.75;11.52;;;7.10;79.30;;;;;;5070737;28;20032;-45
2023/04/18 04:44:28;;;;;;;;;;;7.10;79.10;;;;;;5092626;28;20031;-48
2023/04/18 04:46:55;;;;;;;14.63;11.15;;;7.10;80.00;;;;;;5076852;28;19973;-44
2023/04/18 04:49:25;;;;;;;21.85;13.48;;;7.10;80.50;;;;;;5076751;28;20024;-46
2023/04/18 04:51:53;;;;;;;14.60;12.27;;;7.10;81.90;;;;;;5058850;28;20064;-45
2023/04/18 04:54:19;;;;;;;15.32;11.77;;;7.10;82.00;;;;;;5076316;28;20131;-46
2023/04/18 04:56:46;;;;;;;15.43;12.25;;;7.00;81.90;;;;;;5076474;28;20120;-46
2023/04/18 04:59:11;;;;;;;15.68;11.13;;;7.00;81.80;;;;;;5082660;28;20031;-47
2023/04/18 05:01:38;;;;;;;16.38;11.23;;;7.00;82.50;;;;;;5077578;28;20024;-46
2023/04/18 05:04:04;;;;;;;18.38;10.55;;;7.00;82.90;;;;;;5062301;28;20037;-47
2023/04/18 05:06:31;;;;;;;14.15;10.55;;;7.00;82.80;;;;;;5076413;28;20107;-47
2023/04/18 05:08:59;;;;;;;12.57;10.15;;;7.00;82.30;;;;;;5075491;28;20032;-47
2023/04/18 05:11:29;;;;;;;13.63;9.35;;;7.00;81.30;;;;;;5077543;28;20040;-46
2023/04/18 05:13:55;;;;;;;12.55;9.90;;;7.10;81.50;;;;;;5076228;28;20178;-45
2023/04/18 05:16:21;;;;;;;12.52;10.02;;;7.10;81.80;;;;;;5080467;28;20454;-44
2023/04/18 05:18:48;;;;;;;12.55;9.68;;;7.20;82.00;;;;;;5074206;28;20102;-46
2023/04/18 05:21:15;;;;;;;13.70;10.20;;;7.20;82.00;;;;;;5075842;28;20081;-45
2023/04/18 05:23:43;;;;;;;14.07;10.55;;;7.30;81.70;;;;;;5075856;28;20103;-46
2023/04/18 05:26:09;;;;;;;12.43;10.30;;;7.30;81.20;;;;;;5094342;28;20449;-47
2023/04/18 05:28:36;;;;;;;12.48;9.55;;;7.30;80.80;;;;;;5075354;28;20066;-47
2023/04/18 05:31:03;;;;;;;13.75;10.93;;;7.30;80.60;;;;;;5083382;28;20033;-45
2023/04/18 05:33:34;;;;;;;12.05;9.90;;;7.40;80.10;;;;;;5088204;28;20032;-46
2023/04/18 05:36:04;;;;;;;14.15;9.82;;;7.40;79.40;;;;;;5080362;28;20338;-49
2023/04/18 05:38:31;;;;;;;12.93;10.00;;;7.40;79.00;;;;;;5074542;28;20036;-46
2023/04/18 05:40:59;;;;;;;11.60;9.25;;;7.50;78.40;;;;;;5075425;28;21967;-46
2023/04/18 05:43:25;;;;;;;11.43;9.20;;;7.40;77.60;;;;;;5073919;28;20044;-44
2023/04/18 05:45:53;;;;;;;13.80;9.07;;;7.50;77.60;;;;;;5062348;28;20475;-48
2023/04/18 05:48:22;;;;;;;14.32;9.48;;;7.50;77.00;;;;;;5075468;28;20025;-45
2023/04/18 05:50:49;;;;;;;12.10;9.23;;;7.50;76.00;;;;;;5075639;28;20020;-45
2023/04/18 05:53:16;;;;;;;12.30;9.40;;;7.60;74.50;;;;;;5075529;28;20024;-49
2023/04/18 05:55:45;;;;;;;15.45;9.60;;;7.70;74.40;;;;;;5078890;28;20046;-46
2023/04/18 05:58:11;;;;;;;12.35;9.57;;;7.80;73.30;;;;;;5075414;28;20090;-46
2023/04/18 06:00:40;;;;;;;13.30;10.07;;;7.90;73.00;;;;;;5076483;28;20039;-48
2023/04/18 06:03:06;;;;;;;11.75;8.85;;;8.00;73.40;;;;;;5075238;28;20040;-45
2023/04/18 06:05:31;;;;;;;15.27;10.20;;;8.10;72.80;;;;;;5087943;28;20051;-47
2023/04/18 06:07:57;;;;;;;13.50;8.82;;;8.10;71.40;;;;;;5059676;28;20020;-50
2023/04/18 06:10:26;;;;;;;14.88;9.65;;;8.10;71.00;;;;;;5071453;28;20058;-46
2023/04/18 06:12:53;;;;;;;12.50;8.15;;;8.20;71.00;;;;;;5095072;28;20411;-49
2023/04/18 06:15:22;;;;;;;12.77;8.50;;;8.30;71.20;;;;;;5084761;28;20055;-46
2023/04/18 06:17:49;;;;;;;14.32;9.30;;;8.40;70.60;;;;;;5088206;28;20031;-45
2023/04/18 06:20:16;;;;;;;17.27;9.52;;;8.50;70.70;;;;;;5072814;28;20035;-46
2023/04/18 06:22:42;;;;;;;17.15;9.27;;;8.60;69.80;;;;;;5092371;28;20058;-45
2023/04/18 06:25:08;;;;;;;13.48;8.82;;;8.80;69.20;;;;;;5089262;28;20028;-46
2023/04/18 06:27:36;;;;;;;13.77;10.85;;;8.80;67.70;;;;;;5075585;28;20047;-48
2023/04/18 06:30:06;;;;;;;12.98;8.63;;;8.80;67.00;;;;;;5058244;28;20051;-44
2023/04/18 06:32:34;;;;;;;12.82;9.52;;;8.80;66.60;;;;;;5066084;28;20063;-46
2023/04/18 06:35:02;;;;;;;14.90;8.68;;;8.60;66.70;;;;;;5088173;28;20024;-45
2023/04/18 06:37:33;;;;;;;12.02;8.88;;;8.70;68.30;;;;;;5077776;28;20033;-45
2023/04/18 06:40:00;;;;;;;12.75;8.95;;;8.70;68.10;;;;;;5090114;28;20024;-45
2023/04/18 06:42:32;;;;;;;12.88;8.93;;;8.70;68.40;;;;;;5061997;28;20056;-44
2023/04/18 06:44:59;;;;;;;14.55;10.30;;;8.80;68.80;;;;;;5060949;28;20028;-45
2023/04/18 06:47:27;;;;;;;13.32;9.75;;;8.90;68.20;;;;;;5076852;28;20093;-48
2023/04/18 06:49:53;;;;;;;14.50;10.10;;;8.90;67.30;;;;;;5074249;28;20048;-48
2023/04/18 06:52:21;;;;;;;14.75;9.52;;;8.90;67.20;;;;;;5085637;28;20032;-48
2023/04/18 06:54:49;;;;;;;10.45;8.85;;;8.80;67.20;;;;;;5040151;28;20479;-46
2023/04/18 06:57:17;;;;;;;12.18;8.85;;;8.90;68.40;;;;;;5073838;28;20025;-46
2023/04/18 06:59:44;;;;;;;18.33;9.38;;;8.90;68.30;;;;;;5084742;28;20120;-50
2023/04/18 07:02:11;;;;;;;13.98;9.77;;;9.10;68.00;;;;;;5094352;28;20407;-47
2023/04/18 07:04:38;;;;;;;13.82;8.70;;;9.10;66.90;;;;;;5091637;28;20066;-46
2023/04/18 07:07:05;;;;;;;15.77;9.38;;;9.30;67.10;;;;;;5089644;28;20024;-48
2023/04/18 07:09:31;;;;;;;15.73;10.20;;;9.20;66.20;;;;;;5093875;28;20106;-50
2023/04/18 07:11:57;;;;;;;14.63;8.48;;;9.10;66.70;;;;;;5076433;28;20111;-46
2023/04/18 07:14:24;;;;;;;13.48;8.02;;;9.30;67.80;;;;;;5052736;28;20048;-47
2023/04/18 07:16:52;;;;;;;13.43;8.68;;;9.20;66.70;;;;;;5065676;28;20038;-49
2023/04/18 07:19:21;;;;;;;20.23;9.23;;;9.20;66.80;;;;;;5055585;28;20031;-44
2023/04/18 07:21:50;;;;;;;11.82;8.73;;;9.30;67.00;;;;;;5090586;28;20044;-48
2023/04/18 07:24:16;;;;;;;11.45;8.45;;;9.40;65.80;;;;;;5056459;28;20041;-46
2023/04/18 07:26:46;;;;;;;10.35;8.18;;;9.40;66.20;;;;;;5077315;28;20035;-45
2023/04/18 07:29:13;;;;;;;13.27;8.27;;;9.40;65.90;;;;;;5092773;28;20063;-49
2023/04/18 07:31:40;;;;;;;10.02;8.45;;;9.60;66.10;;;;;;5075617;28;20119;-44
2023/04/18 07:34:08;;;;;;;13.65;8.95;;;9.70;63.90;;;;;;5055738;28;20463;-44
2023/04/18 07:36:35;;;;;;;11.00;8.48;;;9.80;64.90;;;;;;5073499;28;20025;-45
2023/04/18 07:39:03;;;;;;;13.20;7.90;;;10.00;64.30;;;;;;5056280;28;20032;-46
2023/04/18 07:41:31;;;;;;;15.88;8.60;;;10.40;62.40;;;;;;5058859;28;20063;-44
2023/04/18 07:43:56;;;;;;;10.95;8.40;;;10.60;63.30;;;;;;5083464;28;20078;-44
2023/04/18 07:46:22;;;;;;;14.60;9.20;;;10.90;61.80;;;;;;5065506;28;20138;-46
2023/04/18 07:48:49;;;;;;;16.90;9.00;;;11.20;61.70;;;;;;5064802;28;20035;-44
2023/04/18 07:51:15;;;;;;;12.30;9.15;;;11.30;60.30;;;;;;5073117;28;20336;-45
2023/04/18 07:53:42;;;;;;;11.27;7.57;;;11.40;59.90;;;;;;5055604;28;20040;-44
2023/04/18 07:56:16;;;;;;;12.15;8.43;;;11.60;58.70;;;;;;5073220;28;20032;-46
2023/04/18 07:58:44;;;;;;;12.32;8.85;;;11.80;58.60;;;;;;5053157;28;20036;-45
2023/04/18 08:01:14;;;;;;;11.63;8.35;;;12.00;58.10;;;;;;5089592;28;20369;-44
2023/04/18 08:03:41;;;;;;;18.70;8.68;;;12.00;57.40;;;;;;5088360;28;20039;-45
2023/04/18 08:06:09;;;;;;;11.02;7.63;;;11.90;57.20;;;;;;5075961;28;20051;-45
2023/04/18 08:08:34;;;;;;;13.40;8.55;;;12.10;57.50;;;;;;5038434;28;20021;-46
2023/04/18 08:11:01;;;;;;;9.77;7.72;;;12.50;56.80;;;;;;5072683;28;20021;-45
2023/04/18 08:13:27;;;;;;;10.30;7.75;;;12.70;56.50;;;;;;5081292;28;20349;-48
2023/04/18 08:15:54;;;;;;;10.65;8.32;;;13.30;56.10;;;;;;5057834;28;20036;-45
2023/04/18 08:18:22;;;;;;;13.20;7.82;;;13.20;54.60;;;;;;5081859;28;20036;-45
2023/04/18 08:20:47;;;;;;;11.35;7.40;;;13.40;54.60;;;;;;5072620;28;20028;-45
2023/04/18 08:23:15;;;;;;;11.80;7.93;;;13.50;53.30;;;;;;5054793;28;20416;-45
2023/04/18 08:25:44;;;;;;;11.82;7.90;;;13.40;54.30;;;;;;5073090;28;20120;-46
2023/04/18 08:28:15;;;;;;;9.48;7.82;;;13.60;54.50;;;;;;5059849;28;20070;-44
2023/04/18 08:30:47;;;;;;;20.67;8.80;;;13.80;53.40;;;;;;5075761;28;20434;-46
2023/04/18 08:33:17;;;;;;;12.27;7.93;;;13.80;52.90;;;;;;5090918;28;20544;-45
2023/04/18 08:35:44;;;;;;;10.33;7.87;;;13.70;53.50;;;;;;5068820;28;20037;-45
2023/04/18 08:38:10;;;;;;;8.25;6.85;;;13.90;53.50;;;;;;5077499;28;20013;-45
2023/04/18 08:40:37;;;;;;;12.50;7.80;;;14.00;53.90;;;;;;5092886;28;20138;-45
2023/04/18 08:43:08;;;;;;;12.40;7.75;;;13.80;52.60;;;;;;5073862;28;20523;-46
2023/04/18 08:45:36;;;;;;;13.05;7.97;;;13.90;53.10;;;;;;5092956;28;20026;-45
2023/04/18 08:48:06;;;;;;;9.25;8.02;;;13.60;53.20;;;;;;5079035;28;20039;-46
2023/04/18 08:50:35;;;;;;;12.27;8.00;;;13.70;54.40;;;;;;5072308;28;20153;-44
2023/04/18 08:53:02;;;;;;;10.95;7.63;;;13.70;55.00;;;;;;5054921;28;20029;-45
2023/04/18 08:55:32;;;;;;;10.00;8.27;;;13.50;54.70;;;;;;5072673;28;20379;-45
2023/04/18 08:58:01;;;;;;;15.02;8.20;;;13.40;54.90;;;;;;5084637;28;20032;-45
2023/04/18 09:00:28;;;;;;;13.18;8.00;;;13.50;56.90;;;;;;5074838;28;20035;-44
2023/04/18 09:02:56;;;;;;;9.55;7.20;;;13.60;55.40;;;;;;5082010;28;20051;-48
2023/04/18 09:05:25;;;;;;;12.25;7.93;;;13.80;55.60;;;;;;5072674;28;20020;-47
2023/04/18 09:07:55;;;;;;;9.00;7.10;;;13.60;54.20;;;;;;5072592;28;20442;-45
2023/04/18 09:10:43;;;;;;;11.48;6.97;;;13.70;54.70;;;;;;5072317;28;20072;-46
2023/04/18 09:13:11;;;;;;;10.23;7.72;;;14.00;56.00;;;;;;5082719;28;20388;-47
2023/04/18 09:15:37;;;;;;;9.35;7.38;;;14.10;53.50;;;;;;5092152;28;20052;-45
2023/04/18 09:18:09;;;;;;;13.98;7.93;;;14.10;54.80;;;;;;5088425;28;20031;-45
2023/04/18 09:20:53;;;;;;;8.13;6.82;;;14.30;54.70;;;;;;5085351;28;20068;-45
2023/04/18 09:23:24;;;;;;;12.73;6.80;;;14.30;54.30;;;;;;5057569;28;20059;-47
2023/04/18 09:25:51;;;;;;;7.45;6.05;;;14.20;52.20;;;;;;5074603;28;20127;-48
2023/04/18 09:28:36;;;;;;;8.27;6.30;;;14.20;52.90;;;;;;5080393;28;20040;-47
2023/04/18 09:31:14;;;;;;;9.32;6.43;;;14.20;53.40;;;;;;5076721;28;20082;-48
2023/04/18 09:33:53;;;;;;;11.40;7.13;;;14.20;53.70;;;;;;5075883;28;20044;-46
2023/04/18 09:36:22;;;;;;;9.50;7.27;;;13.90;54.20;;;;;;5058245;28;20044;-46
2023/04/18 09:38:54;;;;;;;12.18;8.13;;;14.10;54.80;;;;;;5083070;28;20032;-45
2023/04/18 09:41:24;;;;;;;10.10;7.93;;;14.10;56.20;;;;;;5058591;28;20047;-51
2023/04/18 09:44:10;;;;;;;11.30;7.03;;;14.20;55.10;;;;;;5075621;28;20109;-45
2023/04/18 09:46:48;;;;;;;10.68;7.45;;;14.00;55.10;;;;;;5062410;28;20028;-45
2023/04/18 09:49:17;;;;;;;11.18;7.13;;;14.00;55.30;;;;;;5075750;28;20342;-50
2023/04/18 09:51:44;;;;;;;7.93;6.47;;;14.20;55.40;;;;;;5058472;28;20040;-49
2023/04/18 09:54:22;;;;;;;8.55;6.93;;;14.30;55.90;;;;;;5075486;28;20063;-46
2023/04/18 09:56:55;;;;;;;13.35;6.88;;;14.40;55.10;;;;;;5079026;28;20059;-46
2023/04/18 09:59:49;;;;;;;9.02;5.97;;;14.40;54.20;;;;;;5095770;28;20349;-46
2023/04/18 10:02:25;;;;;;;11.38;7.45;;;14.40;54.20;;;;;;5076591;28;20097;-48
2023/04/18 10:04:54;;;;;;;10.80;7.20;;;14.30;54.00;;;;;;5076609;28;20028;-45
2023/04/18 10:07:34;;;;;;;7.60;6.65;;;14.20;54.50;;;;;;5074133;28;20028;-46
2023/04/18 10:10:01;;;;;;;8.57;6.82;;;14.30;54.30;;;;;;5074940;28;20441;-48
2023/04/18 10:12:28;;;;;;;13.00;8.32;;;14.40;56.60;;;;;;5085032;28;20104;-52
2023/04/18 10:14:56;;;;;;;8.77;7.45;;;14.50;54.80;;;;;;5057170;28;20497;-45
2023/04/18 10:17:26;;;;;;;10.52;8.07;;;14.50;54.30;;;;;;5080537;28;20040;-46
2023/04/18 10:20:07;;;;;;;8.95;7.45;;;14.40;55.20;;;;;;5040831;28;20047;-49
2023/04/18 10:22:34;;;;;;;12.52;9.48;;;14.60;55.00;;;;;;5074712;28;20071;-47
2023/04/18 10:25:02;;;;;;;14.00;9.40;;;14.50;54.90;;;;;;5074891;28;20020;-47
2023/04/18 10:27:50;;;;;;;14.75;9.00;;;14.50;54.90;;;;;;5075336;28;20039;-45
2023/04/18 10:30:17;;;;;;;13.20;9.43;;;14.60;55.20;;;;;;5074472;28;20055;-47
2023/04/18 10:32:47;;;;;;;13.70;9.38;;;14.60;55.50;;;;;;5081111;28;20025;-45
2023/04/18 10:35:14;;;;;;;14.05;9.38;;;14.70;54.60;;;;;;5074600;28;20028;-48
2023/04/18 10:37:50;;;;;;;13.25;9.25;;;14.60;55.00;;;;;;5056846;28;20446;-48
2023/04/18 10:40:32;;;;;;;12.52;10.48;;;14.80;56.00;;;;;;5061535;28;20036;-47
2023/04/18 10:43:03;;;;;;;13.63;10.05;;;14.60;57.80;;;;;;5057045;28;20501;-47
2023/04/18 10:45:35;;;;;;;16.88;10.75;;;14.50;59.40;;;;;;5074629;28;20086;-48
2023/04/18 10:48:39;;;;;;;13.13;10.65;;;14.30;59.30;;;;;;5080298;28;20036;-47
2023/04/18 10:51:18;;;;;;;11.63;10.35;;;14.20;58.90;;;;;;4972795;28;20536;-47
2023/04/18 10:54:07;;;;;;;16.25;11.32;;;14.20;58.80;;;;;;4973581;28;20478;-45
2023/04/18 10:56:34;;;;;;;15.43;10.68;;;14.20;57.80;;;;;;4965300;28;20043;-48
2023/04/18 10:59:08;;;;;;;11.07;9.50;;;14.20;60.10;;;;;;4938272;28;20046;-50
2023/04/18 11:01:36;;;;;;;16.25;12.10;;;14.30;60.10;;;;;;4941104;28;20369;-47
2023/04/18 11:04:12;;;;;;;14.02;11.45;;;14.10;60.60;;;;;;4951200;28;20073;-50
2023/04/18 11:06:48;;;;;;;23.40;11.55;;;14.10;61.60;;;;;;4940501;28;20043;-46
2023/04/18 11:09:18;;;;;;;15.57;10.98;;;14.20;61.60;;;;;;4972404;28;20042;-45
2023/04/18 11:11:44;;;;;;;14.70;10.68;;;14.20;60.30;;;;;;4954596;28;20484;-45
2023/04/18 11:14:11;;;;;;;13.98;11.23;;;14.20;60.70;;;;;;4953728;29;20051;-46
2023/04/18 11:16:38;;;;;;;12.48;10.55;;;14.00;61.10;;;;;;4954517;28;20049;-48
2023/04/18 11:19:22;;;;;;;11.85;10.32;;;13.90;62.70;;;;;;4970562;28;20081;-46
2023/04/18 11:21:51;;;;;;;15.85;11.30;;;13.90;61.90;;;;;;4955183;28;20070;-46
2023/04/18 11:24:22;;;;;;;15.55;10.70;;;13.40;63.50;;;;;;4984817;28;20036;-47
2023/04/18 11:26:54;;;;;;;15.60;10.95;;;13.10;64.70;;;;;;5073134;28;20031;-44
2023/04/18 11:29:20;;;;;;;16.00;11.50;;;12.80;65.80;;;;;;5056237;28;20126;-47
2023/04/18 11:31:53;;;;;;;17.92;11.90;;;12.70;67.00;;;;;;5079790;28;20392;-45
2023/04/18 11:34:21;;;;;;;14.02;11.38;;;12.40;67.90;;;;;;5056303;28;20033;-46
2023/04/18 11:36:51;;;;;;;15.93;12.02;;;12.40;68.70;;;;;;5055992;28;20054;-45
2023/04/18 11:39:17;;;;;;;16.52;11.88;;;12.50;68.00;;;;;;5061668;28;20033;-45
2023/04/18 11:41:55;;;;;;;18.80;13.98;;;12.70;69.00;;;;;;5054694;28;20036;-45
2023/04/18 11:44:26;;;;;;;15.48;11.82;;;12.90;68.50;;;;;;5073425;28;20120;-46
2023/04/18 11:46:54;;;;;;;16.17;12.45;;;12.90;67.30;;;;;;5078613;28;20455;-46
2023/04/18 11:49:24;;;;;;;15.18;12.63;;;12.60;68.30;;;;;;5079902;28;20086;-48
2023/04/18 11:51:52;;;;;;;14.13;11.15;;;12.60;68.50;;;;;;5055358;28;20032;-47
2023/04/18 11:54:41;;;;;;;15.70;12.73;;;12.60;68.00;;;;;;5055474;28;20066;-46
2023/04/18 11:57:19;;;;;;;17.52;11.40;;;12.40;68.60;;;;;;5063204;28;20042;-45
2023/04/18 11:59:58;;;;;;;15.88;12.43;;;12.40;68.70;;;;;;5042408;28;20052;-47
2023/04/18 12:02:38;;;;;;;19.67;13.13;;;12.20;68.50;;;;;;5065447;28;20071;-48
2023/04/18 12:05:05;;;;;;;17.98;12.43;;;12.20;69.60;;;;;;5056893;28;20035;-45
2023/04/18 12:07:52;;;;;;;16.35;12.63;;;12.10;69.50;;;;;;5072642;28;20083;-45
2023/04/18 12:10:37;;;;;;;15.07;11.32;;;12.10;69.60;;;;;;5072507;28;20032;-45
2023/04/18 12:13:07;;;;;;;14.70;12.10;;;11.90;69.50;;;;;;5057927;28;20028;-45
2023/04/18 12:15:40;;;;;;;13.40;10.98;;;11.90;69.80;;;;;;5059590;28;20063;-47
2023/04/18 12:18:09;;;;;;;15.00;11.77;;;12.10;70.00;;;;;;5048422;28;20064;-45
2023/04/18 12:20:44;;;;;;;16.20;11.75;;;12.20;70.00;;;;;;5041106;28;20028;-46
2023/04/18 12:23:48;;;;;;;13.23;11.82;;;12.00;70.40;;;;;;5091416;28;20074;-46
2023/04/18 12:26:17;;;;;;;17.98;11.70;;;11.90;71.10;;;;;;5074805;28;20072;-45
2023/04/18 12:28:51;;;;;;;14.53;11.43;;;11.90;71.10;;;;;;5083012;28;20047;-44
2023/04/18 12:31:27;;;;;;;16.08;11.70;;;11.90;71.40;;;;;;5074980;28;20743;-45
2023/04/18 12:33:54;;;;;;;17.20;10.73;;;11.90;71.50;;;;;;5077760;28;20116;-45
2023/04/18 12:36:22;;;;;;;11.93;10.13;;;11.80;72.00;;;;;;5069821;28;20082;-45
2023/04/18 12:38:50;;;;;;;13.85;9.88;;;11.90;72.30;;;;;;5072613;28;20481;-47
2023/04/18 12:41:16;;;;;;;13.25;8.88;;;11.80;67.80;;;;;;5072550;28;20094;-47
2023/04/18 12:43:46;;;;;;;19.75;8.70;;;11.80;66.30;;;;;;5081778;28;20032;-48
2023/04/18 12:46:14;;;;;;;13.88;11.57;;;11.80;67.20;;;;;;5063197;28;20035;-46
2023/04/18 12:48:44;;;;;;;83.63;48.70;;;11.80;66.60;;;;;;5072633;28;20024;-46
2023/04/18 12:51:11;;;;;;;44.97;29.38;;;11.80;66.70;;;;;;5055264;28;20035;-48
2023/04/18 12:53:40;;;;;;;63.92;47.40;;;12.00;66.30;;;;;;5075200;28;20029;-47